Offenbeek, Netherlands
Current Conditions -  °F | °C
As of 8:20 PM on Friday 24 Oct 2014 (Local Time) from EDLN Reporting Station
Broken Clouds Broken Clouds  
Wind Chill: 55°   Ceiling: 2800
Heat Index: 55°   Visibility: 6mi
Dew Point: 48°   Wind: 6mph
Humidity: 77%   Direction: 170°S
Pressure: 30.06"   Gusts: NA
Location:  51.28°N, 6.1°E
Report Text: EDLN 241820Z 17005KT 100V220 9999 BKN028 13/09 Q1018 RMK ATIS Z
Loading
Personal Weather Stations






























Interactive Weather Map
Tropical Storm Tracking
New forecast layout! Learn more

10-Day Weather Forecast

Advertisements
Track Severe Weather on mobile